sensor_id;sensor_type;location;lat;lon;timestamp;P1;durP1;ratioP1;P2;durP2;ratioP2
40737;SDS011;54759;48.094;-1.628;2022-12-18T00:01:29;2.38;;;2.17;;
40737;SDS011;54759;48.094;-1.628;2022-12-18T00:04:33;2.70;;;2.50;;
40737;SDS011;54759;48.094;-1.628;2022-12-18T00:07:35;2.60;;;2.40;;
40737;SDS011;54759;48.094;-1.628;2022-12-18T00:10:37;2.50;;;2.30;;
40737;SDS011;54759;48.094;-1.628;2022-12-18T00:13:39;3.22;;;2.63;;
40737;SDS011;54759;48.094;-1.628;2022-12-18T00:16:43;2.13;;;1.92;;
40737;SDS011;54759;48.094;-1.628;2022-12-18T00:19:45;2.83;;;2.63;;
40737;SDS011;54759;48.094;-1.628;2022-12-18T00:22:46;2.40;;;2.20;;
40737;SDS011;54759;48.094;-1.628;2022-12-18T00:25:48;2.70;;;2.20;;
40737;SDS011;54759;48.094;-1.628;2022-12-18T00:28:49;2.42;;;2.10;;
40737;SDS011;54759;48.094;-1.628;2022-12-18T00:31:52;2.45;;;2.00;;
40737;SDS011;54759;48.094;-1.628;2022-12-18T00:37:55;2.20;;;2.00;;
40737;SDS011;54759;48.094;-1.628;2022-12-18T00:40:57;2.55;;;2.35;;
40737;SDS011;54759;48.094;-1.628;2022-12-18T00:46:59;2.50;;;2.30;;
40737;SDS011;54759;48.094;-1.628;2022-12-18T00:50:01;2.67;;;2.35;;
40737;SDS011;54759;48.094;-1.628;2022-12-18T00:53:03;2.30;;;2.10;;
40737;SDS011;54759;48.094;-1.628;2022-12-18T00:56:04;2.80;;;2.50;;
40737;SDS011;54759;48.094;-1.628;2022-12-18T00:59:06;2.20;;;1.98;;
40737;SDS011;54759;48.094;-1.628;2022-12-18T01:02:08;2.30;;;2.10;;
40737;SDS011;54759;48.094;-1.628;2022-12-18T01:05:11;2.40;;;2.20;;
40737;SDS011;54759;48.094;-1.628;2022-12-18T01:08:14;2.53;;;2.05;;
40737;SDS011;54759;48.094;-1.628;2022-12-18T01:11:17;2.72;;;2.50;;
40737;SDS011;54759;48.094;-1.628;2022-12-18T01:14:20;2.35;;;2.15;;
40737;SDS011;54759;48.094;-1.628;2022-12-18T01:17:21;2.30;;;2.08;;
40737;SDS011;54759;48.094;-1.628;2022-12-18T01:20:23;2.20;;;2.00;;
40737;SDS011;54759;48.094;-1.628;2022-12-18T01:23:25;2.63;;;2.42;;
40737;SDS011;54759;48.094;-1.628;2022-12-18T01:26:26;2.28;;;2.08;;
40737;SDS011;54759;48.094;-1.628;2022-12-18T01:29:30;2.42;;;2.22;;
40737;SDS011;54759;48.094;-1.628;2022-12-18T01:35:39;2.53;;;2.33;;
40737;SDS011;54759;48.094;-1.628;2022-12-18T01:38:42;2.35;;;2.15;;
40737;SDS011;54759;48.094;-1.628;2022-12-18T01:41:44;2.50;;;2.30;;
40737;SDS011;54759;48.094;-1.628;2022-12-18T01:45:02;2.65;;;2.30;;
40737;SDS011;54759;48.094;-1.628;2022-12-18T01:48:07;2.25;;;2.05;;
40737;SDS011;54759;48.094;-1.628;2022-12-18T01:51:10;2.40;;;2.20;;
40737;SDS011;54759;48.094;-1.628;2022-12-18T01:54:13;2.20;;;2.00;;
40737;SDS011;54759;48.094;-1.628;2022-12-18T01:57:15;2.35;;;2.15;;
40737;SDS011;54759;48.094;-1.628;2022-12-18T02:00:19;2.30;;;2.00;;
40737;SDS011;54759;48.094;-1.628;2022-12-18T02:03:21;2.60;;;2.40;;
40737;SDS011;54759;48.094;-1.628;2022-12-18T02:06:23;2.53;;;2.33;;
40737;SDS011;54759;48.094;-1.628;2022-12-18T02:09:31;2.72;;;2.30;;
40737;SDS011;54759;48.094;-1.628;2022-12-18T02:12:40;2.30;;;2.10;;
40737;SDS011;54759;48.094;-1.628;2022-12-18T02:15:49;2.25;;;2.05;;
40737;SDS011;54759;48.094;-1.628;2022-12-18T02:18:58;2.38;;;2.17;;
40737;SDS011;54759;48.094;-1.628;2022-12-18T02:22:07;3.17;;;2.55;;
40737;SDS011;54759;48.094;-1.628;2022-12-18T02:25:26;2.20;;;2.00;;
40737;SDS011;54759;48.094;-1.628;2022-12-18T02:28:42;2.33;;;2.13;;
40737;SDS011;54759;48.094;-1.628;2022-12-18T02:31:47;2.50;;;2.30;;
40737;SDS011;54759;48.094;-1.628;2022-12-18T02:34:53;2.50;;;2.30;;
40737;SDS011;54759;48.094;-1.628;2022-12-18T02:37:59;2.47;;;2.28;;
40737;SDS011;54759;48.094;-1.628;2022-12-18T02:41:04;2.35;;;2.15;;
40737;SDS011;54759;48.094;-1.628;2022-12-18T02:44:08;2.33;;;2.13;;
40737;SDS011;54759;48.094;-1.628;2022-12-18T02:47:11;2.63;;;2.40;;
40737;SDS011;54759;48.094;-1.628;2022-12-18T02:50:16;2.50;;;2.30;;
40737;SDS011;54759;48.094;-1.628;2022-12-18T02:53:28;2.78;;;2.58;;
40737;SDS011;54759;48.094;-1.628;2022-12-18T02:56:36;2.30;;;2.10;;
40737;SDS011;54759;48.094;-1.628;2022-12-18T02:59:47;2.45;;;2.25;;
40737;SDS011;54759;48.094;-1.628;2022-12-18T03:02:56;2.30;;;1.92;;
40737;SDS011;54759;48.094;-1.628;2022-12-18T03:06:04;2.90;;;2.60;;
40737;SDS011;54759;48.094;-1.628;2022-12-18T03:09:12;2.58;;;2.38;;
40737;SDS011;54759;48.094;-1.628;2022-12-18T03:12:17;2.63;;;2.38;;
40737;SDS011;54759;48.094;-1.628;2022-12-18T03:15:25;2.72;;;2.30;;
40737;SDS011;54759;48.094;-1.628;2022-12-18T03:18:38;2.33;;;2.13;;
40737;SDS011;54759;48.094;-1.628;2022-12-18T03:21:45;2.60;;;2.20;;
40737;SDS011;54759;48.094;-1.628;2022-12-18T03:24:51;2.50;;;2.20;;
40737;SDS011;54759;48.094;-1.628;2022-12-18T03:27:55;2.40;;;2.20;;
40737;SDS011;54759;48.094;-1.628;2022-12-18T03:31:00;2.35;;;2.10;;
40737;SDS011;54759;48.094;-1.628;2022-12-18T03:34:04;2.85;;;2.55;;
40737;SDS011;54759;48.094;-1.628;2022-12-18T03:37:15;2.28;;;2.08;;
40737;SDS011;54759;48.094;-1.628;2022-12-18T03:40:17;2.63;;;2.42;;
40737;SDS011;54759;48.094;-1.628;2022-12-18T03:43:28;2.40;;;2.08;;
40737;SDS011;54759;48.094;-1.628;2022-12-18T03:46:38;2.45;;;2.10;;
40737;SDS011;54759;48.094;-1.628;2022-12-18T03:49:47;2.78;;;2.30;;
40737;SDS011;54759;48.094;-1.628;2022-12-18T03:52:57;2.63;;;2.40;;
40737;SDS011;54759;48.094;-1.628;2022-12-18T03:56:07;3.17;;;2.87;;
40737;SDS011;54759;48.094;-1.628;2022-12-18T03:59:14;2.53;;;2.20;;
40737;SDS011;54759;48.094;-1.628;2022-12-18T04:02:18;2.50;;;2.30;;
40737;SDS011;54759;48.094;-1.628;2022-12-18T04:05:22;2.28;;;2.08;;
40737;SDS011;54759;48.094;-1.628;2022-12-18T04:08:26;2.78;;;2.58;;
40737;SDS011;54759;48.094;-1.628;2022-12-18T04:11:36;2.30;;;2.10;;
40737;SDS011;54759;48.094;-1.628;2022-12-18T04:14:38;3.05;;;2.50;;
40737;SDS011;54759;48.094;-1.628;2022-12-18T04:17:43;2.33;;;2.13;;
40737;SDS011;54759;48.094;-1.628;2022-12-18T04:20:51;2.80;;;2.50;;
40737;SDS011;54759;48.094;-1.628;2022-12-18T04:23:53;2.47;;;2.28;;
40737;SDS011;54759;48.094;-1.628;2022-12-18T04:26:56;2.55;;;2.35;;
40737;SDS011;54759;48.094;-1.628;2022-12-18T04:30:01;2.25;;;2.05;;
40737;SDS011;54759;48.094;-1.628;2022-12-18T04:33:08;2.75;;;2.47;;
40737;SDS011;54759;48.094;-1.628;2022-12-18T04:36:10;2.15;;;1.95;;
40737;SDS011;54759;48.094;-1.628;2022-12-18T04:39:18;2.53;;;2.33;;
40737;SDS011;54759;48.094;-1.628;2022-12-18T04:42:22;2.53;;;2.33;;
40737;SDS011;54759;48.094;-1.628;2022-12-18T04:45:24;2.67;;;2.20;;
40737;SDS011;54759;48.094;-1.628;2022-12-18T04:51:27;2.30;;;2.08;;
40737;SDS011;54759;48.094;-1.628;2022-12-18T04:54:28;2.38;;;2.17;;
40737;SDS011;54759;48.094;-1.628;2022-12-18T04:57:30;2.83;;;2.42;;
40737;SDS011;54759;48.094;-1.628;2022-12-18T05:00:31;2.70;;;2.10;;
40737;SDS011;54759;48.094;-1.628;2022-12-18T05:03:34;2.47;;;2.28;;
40737;SDS011;54759;48.094;-1.628;2022-12-18T05:06:36;2.50;;;1.90;;
40737;SDS011;54759;48.094;-1.628;2022-12-18T05:09:38;2.10;;;1.85;;
40737;SDS011;54759;48.094;-1.628;2022-12-18T05:12:39;2.17;;;1.88;;
40737;SDS011;54759;48.094;-1.628;2022-12-18T05:15:55;2.58;;;2.20;;
40737;SDS011;54759;48.094;-1.628;2022-12-18T05:18:58;2.20;;;2.00;;
40737;SDS011;54759;48.094;-1.628;2022-12-18T05:21:59;2.42;;;2.10;;
40737;SDS011;54759;48.094;-1.628;2022-12-18T05:25:01;2.60;;;2.20;;
40737;SDS011;54759;48.094;-1.628;2022-12-18T05:31:04;2.42;;;2.10;;
40737;SDS011;54759;48.094;-1.628;2022-12-18T05:37:08;2.45;;;2.08;;
40737;SDS011;54759;48.094;-1.628;2022-12-18T05:40:10;3.15;;;1.92;;
40737;SDS011;54759;48.094;-1.628;2022-12-18T05:43:12;2.17;;;1.98;;
40737;SDS011;54759;48.094;-1.628;2022-12-18T05:46:21;2.28;;;2.08;;
40737;SDS011;54759;48.094;-1.628;2022-12-18T05:49:23;2.30;;;2.10;;
40737;SDS011;54759;48.094;-1.628;2022-12-18T05:52:25;2.10;;;1.90;;
40737;SDS011;54759;48.094;-1.628;2022-12-18T05:55:26;2.30;;;1.98;;
40737;SDS011;54759;48.094;-1.628;2022-12-18T05:58:28;2.70;;;2.30;;
40737;SDS011;54759;48.094;-1.628;2022-12-18T06:04:32;2.30;;;2.10;;
40737;SDS011;54759;48.094;-1.628;2022-12-18T06:07:33;2.47;;;2.28;;
40737;SDS011;54759;48.094;-1.628;2022-12-18T06:10:35;2.20;;;2.00;;
40737;SDS011;54759;48.094;-1.628;2022-12-18T06:13:37;2.25;;;2.05;;
40737;SDS011;54759;48.094;-1.628;2022-12-18T06:16:39;2.75;;;2.10;;
40737;SDS011;54759;48.094;-1.628;2022-12-18T06:22:42;2.22;;;2.03;;
40737;SDS011;54759;48.094;-1.628;2022-12-18T06:25:44;2.47;;;2.08;;
40737;SDS011;54759;48.094;-1.628;2022-12-18T06:28:46;2.45;;;2.05;;
40737;SDS011;54759;48.094;-1.628;2022-12-18T06:31:48;2.13;;;1.92;;
40737;SDS011;54759;48.094;-1.628;2022-12-18T06:40:53;2.33;;;1.95;;
40737;SDS011;54759;48.094;-1.628;2022-12-18T06:43:54;2.35;;;1.85;;
40737;SDS011;54759;48.094;-1.628;2022-12-18T06:47:00;1.73;;;1.60;;
40737;SDS011;54759;48.094;-1.628;2022-12-18T06:56:06;1.92;;;1.75;;
40737;SDS011;54759;48.094;-1.628;2022-12-18T06:59:11;2.00;;;1.80;;
40737;SDS011;54759;48.094;-1.628;2022-12-18T07:02:13;2.22;;;1.83;;
40737;SDS011;54759;48.094;-1.628;2022-12-18T07:11:18;2.00;;;1.73;;
40737;SDS011;54759;48.094;-1.628;2022-12-18T07:14:20;2.20;;;2.00;;
40737;SDS011;54759;48.094;-1.628;2022-12-18T07:17:22;2.00;;;1.63;;
40737;SDS011;54759;48.094;-1.628;2022-12-18T07:20:24;1.83;;;1.63;;
40737;SDS011;54759;48.094;-1.628;2022-12-18T07:23:25;1.92;;;1.60;;
40737;SDS011;54759;48.094;-1.628;2022-12-18T07:26:26;1.80;;;1.60;;
40737;SDS011;54759;48.094;-1.628;2022-12-18T07:29:28;2.08;;;1.73;;
40737;SDS011;54759;48.094;-1.628;2022-12-18T07:32:30;1.60;;;1.50;;
40737;SDS011;54759;48.094;-1.628;2022-12-18T07:35:32;1.98;;;1.80;;
40737;SDS011;54759;48.094;-1.628;2022-12-18T07:38:34;1.95;;;1.75;;
40737;SDS011;54759;48.094;-1.628;2022-12-18T07:41:36;1.70;;;1.60;;
40737;SDS011;54759;48.094;-1.628;2022-12-18T07:44:42;2.00;;;1.80;;
40737;SDS011;54759;48.094;-1.628;2022-12-18T07:47:44;1.95;;;1.73;;
40737;SDS011;54759;48.094;-1.628;2022-12-18T07:50:46;1.85;;;1.58;;
40737;SDS011;54759;48.094;-1.628;2022-12-18T07:53:47;2.00;;;1.80;;
40737;SDS011;54759;48.094;-1.628;2022-12-18T07:56:52;2.00;;;1.63;;
40737;SDS011;54759;48.094;-1.628;2022-12-18T07:59:54;2.15;;;1.70;;
40737;SDS011;54759;48.094;-1.628;2022-12-18T08:02:55;1.83;;;1.70;;
40737;SDS011;54759;48.094;-1.628;2022-12-18T08:09:00;2.45;;;2.10;;
40737;SDS011;54759;48.094;-1.628;2022-12-18T08:12:02;1.88;;;1.70;;
40737;SDS011;54759;48.094;-1.628;2022-12-18T08:15:04;1.88;;;1.67;;
40737;SDS011;54759;48.094;-1.628;2022-12-18T08:18:06;1.98;;;1.77;;
40737;SDS011;54759;48.094;-1.628;2022-12-18T08:21:15;2.05;;;1.83;;
40737;SDS011;54759;48.094;-1.628;2022-12-18T08:24:18;1.88;;;1.60;;
40737;SDS011;54759;48.094;-1.628;2022-12-18T08:27:20;1.58;;;1.48;;
40737;SDS011;54759;48.094;-1.628;2022-12-18T08:30:30;1.83;;;1.70;;
40737;SDS011;54759;48.094;-1.628;2022-12-18T08:33:31;2.05;;;1.73;;
40737;SDS011;54759;48.094;-1.628;2022-12-18T08:36:34;2.00;;;1.60;;
40737;SDS011;54759;48.094;-1.628;2022-12-18T08:39:35;1.70;;;1.40;;
40737;SDS011;54759;48.094;-1.628;2022-12-18T08:42:37;1.70;;;1.50;;
40737;SDS011;54759;48.094;-1.628;2022-12-18T08:45:53;1.67;;;1.58;;
40737;SDS011;54759;48.094;-1.628;2022-12-18T08:51:56;1.83;;;1.60;;
40737;SDS011;54759;48.094;-1.628;2022-12-18T08:54:58;1.52;;;1.42;;
40737;SDS011;54759;48.094;-1.628;2022-12-18T08:57:59;1.60;;;1.48;;
40737;SDS011;54759;48.094;-1.628;2022-12-18T09:01:01;1.35;;;1.25;;
40737;SDS011;54759;48.094;-1.628;2022-12-18T09:04:03;1.92;;;1.65;;
40737;SDS011;54759;48.094;-1.628;2022-12-18T09:07:07;1.63;;;1.52;;
40737;SDS011;54759;48.094;-1.628;2022-12-18T09:10:09;1.75;;;1.50;;
40737;SDS011;54759;48.094;-1.628;2022-12-18T09:13:11;1.90;;;1.70;;
40737;SDS011;54759;48.094;-1.628;2022-12-18T09:16:13;1.52;;;1.42;;
40737;SDS011;54759;48.094;-1.628;2022-12-18T09:19:16;1.85;;;1.60;;
40737;SDS011;54759;48.094;-1.628;2022-12-18T09:22:18;1.75;;;1.25;;
40737;SDS011;54759;48.094;-1.628;2022-12-18T09:25:19;1.60;;;1.20;;
40737;SDS011;54759;48.094;-1.628;2022-12-18T09:28:21;1.67;;;1.33;;
40737;SDS011;54759;48.094;-1.628;2022-12-18T09:31:23;1.80;;;1.35;;
40737;SDS011;54759;48.094;-1.628;2022-12-18T09:34:25;2.25;;;1.90;;
40737;SDS011;54759;48.094;-1.628;2022-12-18T09:37:27;1.90;;;1.38;;
40737;SDS011;54759;48.094;-1.628;2022-12-18T09:40:28;1.50;;;1.40;;
40737;SDS011;54759;48.094;-1.628;2022-12-18T09:43:41;1.80;;;1.50;;
40737;SDS011;54759;48.094;-1.628;2022-12-18T09:46:47;1.65;;;1.55;;
40737;SDS011;54759;48.094;-1.628;2022-12-18T09:49:56;1.23;;;1.10;;
40737;SDS011;54759;48.094;-1.628;2022-12-18T09:53:04;1.65;;;1.50;;
40737;SDS011;54759;48.094;-1.628;2022-12-18T09:56:10;1.70;;;1.42;;
40737;SDS011;54759;48.094;-1.628;2022-12-18T09:59:18;1.88;;;1.50;;
40737;SDS011;54759;48.094;-1.628;2022-12-18T10:02:25;1.60;;;1.38;;
40737;SDS011;54759;48.094;-1.628;2022-12-18T10:05:30;1.45;;;1.20;;
40737;SDS011;54759;48.094;-1.628;2022-12-18T10:08:39;1.60;;;1.33;;
40737;SDS011;54759;48.094;-1.628;2022-12-18T10:11:48;1.70;;;1.30;;
40737;SDS011;54759;48.094;-1.628;2022-12-18T10:14:59;1.70;;;1.45;;
40737;SDS011;54759;48.094;-1.628;2022-12-18T10:18:07;1.80;;;1.45;;
40737;SDS011;54759;48.094;-1.628;2022-12-18T10:21:23;1.50;;;1.40;;
40737;SDS011;54759;48.094;-1.628;2022-12-18T10:24:32;1.60;;;1.50;;
40737;SDS011;54759;48.094;-1.628;2022-12-18T10:27:39;1.70;;;1.60;;
40737;SDS011;54759;48.094;-1.628;2022-12-18T10:30:42;2.08;;;1.58;;
40737;SDS011;54759;48.094;-1.628;2022-12-18T10:33:44;1.60;;;1.40;;
40737;SDS011;54759;48.094;-1.628;2022-12-18T10:36:46;1.60;;;1.50;;
40737;SDS011;54759;48.094;-1.628;2022-12-18T10:43:20;1.52;;;1.27;;
40737;SDS011;54759;48.094;-1.628;2022-12-18T10:46:23;1.70;;;1.42;;
40737;SDS011;54759;48.094;-1.628;2022-12-18T10:52:27;1.48;;;1.23;;
40737;SDS011;54759;48.094;-1.628;2022-12-18T10:55:31;1.77;;;1.50;;
40737;SDS011;54759;48.094;-1.628;2022-12-18T10:58:35;1.77;;;1.60;;
40737;SDS011;54759;48.094;-1.628;2022-12-18T11:01:45;1.20;;;1.10;;
40737;SDS011;54759;48.094;-1.628;2022-12-18T11:04:50;2.03;;;1.40;;
40737;SDS011;54759;48.094;-1.628;2022-12-18T11:07:52;1.50;;;1.10;;
40737;SDS011;54759;48.094;-1.628;2022-12-18T11:10:55;1.40;;;1.20;;
40737;SDS011;54759;48.094;-1.628;2022-12-18T11:13:58;2.15;;;1.50;;
40737;SDS011;54759;48.094;-1.628;2022-12-18T11:17:02;1.80;;;1.38;;
40737;SDS011;54759;48.094;-1.628;2022-12-18T11:20:27;1.73;;;1.35;;
40737;SDS011;54759;48.094;-1.628;2022-12-18T11:23:32;1.55;;;1.42;;
40737;SDS011;54759;48.094;-1.628;2022-12-18T11:26:35;1.60;;;1.40;;
40737;SDS011;54759;48.094;-1.628;2022-12-18T11:29:38;1.67;;;1.58;;
40737;SDS011;54759;48.094;-1.628;2022-12-18T11:32:46;1.50;;;1.30;;
40737;SDS011;54759;48.094;-1.628;2022-12-18T11:35:49;1.92;;;1.50;;
40737;SDS011;54759;48.094;-1.628;2022-12-18T11:38:53;1.65;;;1.23;;
40737;SDS011;54759;48.094;-1.628;2022-12-18T11:41:59;1.60;;;1.45;;
40737;SDS011;54759;48.094;-1.628;2022-12-18T11:45:23;1.30;;;1.20;;
40737;SDS011;54759;48.094;-1.628;2022-12-18T11:48:29;1.10;;;1.00;;
40737;SDS011;54759;48.094;-1.628;2022-12-18T11:51:34;1.42;;;1.27;;
40737;SDS011;54759;48.094;-1.628;2022-12-18T11:54:39;1.80;;;1.60;;
40737;SDS011;54759;48.094;-1.628;2022-12-18T11:57:42;1.60;;;1.35;;
40737;SDS011;54759;48.094;-1.628;2022-12-18T12:00:54;1.50;;;1.30;;
40737;SDS011;54759;48.094;-1.628;2022-12-18T12:04:04;1.60;;;1.40;;
40737;SDS011;54759;48.094;-1.628;2022-12-18T12:07:19;1.33;;;1.20;;
40737;SDS011;54759;48.094;-1.628;2022-12-18T12:10:30;1.20;;;1.10;;
40737;SDS011;54759;48.094;-1.628;2022-12-18T12:13:46;1.17;;;1.08;;
40737;SDS011;54759;48.094;-1.628;2022-12-18T12:17:04;1.25;;;1.15;;
40737;SDS011;54759;48.094;-1.628;2022-12-18T12:20:13;1.02;;;0.90;;
40737;SDS011;54759;48.094;-1.628;2022-12-18T12:23:23;1.20;;;1.10;;
40737;SDS011;54759;48.094;-1.628;2022-12-18T12:26:33;1.25;;;1.10;;
40737;SDS011;54759;48.094;-1.628;2022-12-18T12:29:42;1.25;;;1.05;;
40737;SDS011;54759;48.094;-1.628;2022-12-18T12:32:56;0.90;;;0.80;;
40737;SDS011;54759;48.094;-1.628;2022-12-18T12:36:07;1.30;;;1.20;;
40737;SDS011;54759;48.094;-1.628;2022-12-18T12:39:16;0.95;;;0.90;;
40737;SDS011;54759;48.094;-1.628;2022-12-18T12:42:24;1.30;;;1.20;;
40737;SDS011;54759;48.094;-1.628;2022-12-18T12:45:45;1.25;;;1.00;;
40737;SDS011;54759;48.094;-1.628;2022-12-18T12:48:52;1.23;;;1.13;;
40737;SDS011;54759;48.094;-1.628;2022-12-18T12:51:57;1.38;;;1.25;;
40737;SDS011;54759;48.094;-1.628;2022-12-18T12:55:02;1.20;;;1.10;;
40737;SDS011;54759;48.094;-1.628;2022-12-18T12:58:16;1.38;;;1.20;;
40737;SDS011;54759;48.094;-1.628;2022-12-18T13:01:28;1.60;;;1.30;;
40737;SDS011;54759;48.094;-1.628;2022-12-18T13:04:39;1.50;;;1.27;;
40737;SDS011;54759;48.094;-1.628;2022-12-18T13:07:49;1.50;;;1.17;;
40737;SDS011;54759;48.094;-1.628;2022-12-18T13:10:56;1.17;;;1.08;;
40737;SDS011;54759;48.094;-1.628;2022-12-18T13:14:19;1.58;;;1.20;;
40737;SDS011;54759;48.094;-1.628;2022-12-18T13:17:29;1.55;;;1.42;;
40737;SDS011;54759;48.094;-1.628;2022-12-18T13:20:33;1.55;;;1.27;;
40737;SDS011;54759;48.094;-1.628;2022-12-18T13:23:35;1.35;;;1.05;;
40737;SDS011;54759;48.094;-1.628;2022-12-18T13:26:37;1.67;;;1.50;;
40737;SDS011;54759;48.094;-1.628;2022-12-18T13:29:40;1.40;;;1.30;;
40737;SDS011;54759;48.094;-1.628;2022-12-18T13:32:43;1.90;;;1.35;;
40737;SDS011;54759;48.094;-1.628;2022-12-18T13:35:51;2.25;;;1.30;;
40737;SDS011;54759;48.094;-1.628;2022-12-18T13:42:34;1.30;;;1.20;;
40737;SDS011;54759;48.094;-1.628;2022-12-18T13:46:03;1.55;;;1.00;;
40737;SDS011;54759;48.094;-1.628;2022-12-18T13:49:16;1.30;;;1.20;;
40737;SDS011;54759;48.094;-1.628;2022-12-18T13:52:24;1.40;;;1.10;;
40737;SDS011;54759;48.094;-1.628;2022-12-18T13:55:28;1.40;;;1.20;;
40737;SDS011;54759;48.094;-1.628;2022-12-18T14:01:31;1.35;;;1.20;;
40737;SDS011;54759;48.094;-1.628;2022-12-18T14:04:34;1.63;;;1.38;;
40737;SDS011;54759;48.094;-1.628;2022-12-18T14:07:36;1.60;;;1.50;;
40737;SDS011;54759;48.094;-1.628;2022-12-18T14:10:51;1.48;;;1.20;;
40737;SDS011;54759;48.094;-1.628;2022-12-18T14:13:53;1.30;;;1.20;;
40737;SDS011;54759;48.094;-1.628;2022-12-18T14:16:55;1.65;;;1.40;;
40737;SDS011;54759;48.094;-1.628;2022-12-18T14:19:58;1.80;;;1.40;;
40737;SDS011;54759;48.094;-1.628;2022-12-18T14:23:00;1.35;;;1.23;;
40737;SDS011;54759;48.094;-1.628;2022-12-18T14:26:03;1.10;;;1.00;;
40737;SDS011;54759;48.094;-1.628;2022-12-18T14:29:22;1.55;;;1.40;;
40737;SDS011;54759;48.094;-1.628;2022-12-18T14:32:25;1.55;;;1.15;;
40737;SDS011;54759;48.094;-1.628;2022-12-18T14:38:29;1.35;;;1.05;;
40737;SDS011;54759;48.094;-1.628;2022-12-18T14:41:31;1.10;;;1.00;;
40737;SDS011;54759;48.094;-1.628;2022-12-18T14:44:33;1.23;;;1.13;;
40737;SDS011;54759;48.094;-1.628;2022-12-18T14:50:58;1.33;;;1.02;;
40737;SDS011;54759;48.094;-1.628;2022-12-18T14:54:02;1.02;;;0.93;;
40737;SDS011;54759;48.094;-1.628;2022-12-18T14:57:06;1.40;;;1.00;;
40737;SDS011;54759;48.094;-1.628;2022-12-18T15:00:22;1.23;;;1.00;;
40737;SDS011;54759;48.094;-1.628;2022-12-18T15:03:25;1.58;;;1.20;;
40737;SDS011;54759;48.094;-1.628;2022-12-18T15:06:29;1.30;;;1.00;;
40737;SDS011;54759;48.094;-1.628;2022-12-18T15:09:32;1.40;;;1.10;;
40737;SDS011;54759;48.094;-1.628;2022-12-18T15:12:34;1.23;;;1.13;;
40737;SDS011;54759;48.094;-1.628;2022-12-18T15:15:46;1.17;;;1.05;;
40737;SDS011;54759;48.094;-1.628;2022-12-18T15:18:48;1.25;;;1.10;;
40737;SDS011;54759;48.094;-1.628;2022-12-18T15:21:50;1.25;;;1.00;;
40737;SDS011;54759;48.094;-1.628;2022-12-18T15:24:52;1.23;;;0.95;;
40737;SDS011;54759;48.094;-1.628;2022-12-18T15:27:55;1.48;;;1.20;;
40737;SDS011;54759;48.094;-1.628;2022-12-18T15:34:01;1.10;;;1.00;;
40737;SDS011;54759;48.094;-1.628;2022-12-18T15:37:10;1.27;;;1.10;;
40737;SDS011;54759;48.094;-1.628;2022-12-18T15:40:13;1.10;;;0.80;;
40737;SDS011;54759;48.094;-1.628;2022-12-18T15:43:22;0.98;;;0.88;;
40737;SDS011;54759;48.094;-1.628;2022-12-18T15:46:40;1.20;;;1.10;;
40737;SDS011;54759;48.094;-1.628;2022-12-18T15:49:41;1.10;;;1.00;;
40737;SDS011;54759;48.094;-1.628;2022-12-18T15:52:44;1.17;;;0.90;;
40737;SDS011;54759;48.094;-1.628;2022-12-18T15:55:47;1.13;;;0.85;;
40737;SDS011;54759;48.094;-1.628;2022-12-18T15:59:04;1.17;;;1.02;;
40737;SDS011;54759;48.094;-1.628;2022-12-18T16:02:13;1.27;;;1.15;;
40737;SDS011;54759;48.094;-1.628;2022-12-18T16:05:18;1.10;;;1.00;;
40737;SDS011;54759;48.094;-1.628;2022-12-18T16:08:22;0.90;;;0.90;;
40737;SDS011;54759;48.094;-1.628;2022-12-18T16:11:25;0.90;;;0.90;;
40737;SDS011;54759;48.094;-1.628;2022-12-18T16:14:38;0.82;;;0.82;;
40737;SDS011;54759;48.094;-1.628;2022-12-18T16:17:40;0.85;;;0.70;;
40737;SDS011;54759;48.094;-1.628;2022-12-18T16:20:41;0.90;;;0.80;;
40737;SDS011;54759;48.094;-1.628;2022-12-18T16:26:45;0.90;;;0.75;;
40737;SDS011;54759;48.094;-1.628;2022-12-18T16:29:46;1.00;;;0.68;;
40737;SDS011;54759;48.094;-1.628;2022-12-18T16:32:48;0.70;;;0.70;;
40737;SDS011;54759;48.094;-1.628;2022-12-18T16:35:51;1.05;;;0.80;;
40737;SDS011;54759;48.094;-1.628;2022-12-18T16:38:53;0.90;;;0.90;;
40737;SDS011;54759;48.094;-1.628;2022-12-18T16:41:55;1.00;;;0.77;;
40737;SDS011;54759;48.094;-1.628;2022-12-18T16:44:58;0.90;;;0.90;;
40737;SDS011;54759;48.094;-1.628;2022-12-18T16:51:01;1.17;;;0.75;;
40737;SDS011;54759;48.094;-1.628;2022-12-18T16:54:05;0.70;;;0.70;;
40737;SDS011;54759;48.094;-1.628;2022-12-18T16:57:13;0.70;;;0.68;;
40737;SDS011;54759;48.094;-1.628;2022-12-18T17:00:16;0.80;;;0.65;;
40737;SDS011;54759;48.094;-1.628;2022-12-18T17:03:18;0.70;;;0.60;;
40737;SDS011;54759;48.094;-1.628;2022-12-18T17:09:21;0.90;;;0.73;;
40737;SDS011;54759;48.094;-1.628;2022-12-18T17:12:24;0.85;;;0.77;;
40737;SDS011;54759;48.094;-1.628;2022-12-18T17:15:26;0.95;;;0.88;;
40737;SDS011;54759;48.094;-1.628;2022-12-18T17:18:28;0.65;;;0.55;;
40737;SDS011;54759;48.094;-1.628;2022-12-18T17:21:29;0.60;;;0.57;;
40737;SDS011;54759;48.094;-1.628;2022-12-18T17:24:31;0.60;;;0.60;;
40737;SDS011;54759;48.094;-1.628;2022-12-18T17:27:35;0.85;;;0.70;;
40737;SDS011;54759;48.094;-1.628;2022-12-18T17:33:40;0.98;;;0.80;;
40737;SDS011;54759;48.094;-1.628;2022-12-18T17:36:43;0.95;;;0.80;;
40737;SDS011;54759;48.094;-1.628;2022-12-18T17:39:45;0.90;;;0.75;;
40737;SDS011;54759;48.094;-1.628;2022-12-18T17:42:47;0.60;;;0.57;;
40737;SDS011;54759;48.094;-1.628;2022-12-18T17:45:52;0.77;;;0.70;;
40737;SDS011;54759;48.094;-1.628;2022-12-18T17:48:56;0.80;;;0.63;;
40737;SDS011;54759;48.094;-1.628;2022-12-18T17:51:59;0.95;;;0.70;;
40737;SDS011;54759;48.094;-1.628;2022-12-18T18:01:03;1.15;;;0.90;;
40737;SDS011;54759;48.094;-1.628;2022-12-18T18:04:06;0.90;;;0.65;;
40737;SDS011;54759;48.094;-1.628;2022-12-18T18:07:08;0.85;;;0.57;;
40737;SDS011;54759;48.094;-1.628;2022-12-18T18:16:40;1.08;;;0.90;;
40737;SDS011;54759;48.094;-1.628;2022-12-18T18:19:43;0.70;;;0.55;;
40737;SDS011;54759;48.094;-1.628;2022-12-18T18:22:50;0.70;;;0.68;;
40737;SDS011;54759;48.094;-1.628;2022-12-18T18:25:52;0.82;;;0.70;;
40737;SDS011;54759;48.094;-1.628;2022-12-18T18:28:54;0.70;;;0.60;;
40737;SDS011;54759;48.094;-1.628;2022-12-18T18:31:56;0.80;;;0.65;;
40737;SDS011;54759;48.094;-1.628;2022-12-18T18:34:57;1.42;;;0.85;;
40737;SDS011;54759;48.094;-1.628;2022-12-18T18:37:59;1.05;;;0.85;;
40737;SDS011;54759;48.094;-1.628;2022-12-18T18:41:02;0.70;;;0.70;;
40737;SDS011;54759;48.094;-1.628;2022-12-18T18:44:04;1.30;;;0.90;;
40737;SDS011;54759;48.094;-1.628;2022-12-18T18:47:06;0.82;;;0.70;;
40737;SDS011;54759;48.094;-1.628;2022-12-18T18:50:10;0.93;;;0.70;;
40737;SDS011;54759;48.094;-1.628;2022-12-18T18:53:12;0.77;;;0.60;;
40737;SDS011;54759;48.094;-1.628;2022-12-18T18:56:15;0.70;;;0.70;;
40737;SDS011;54759;48.094;-1.628;2022-12-18T18:59:38;0.57;;;0.57;;
40737;SDS011;54759;48.094;-1.628;2022-12-18T19:05:41;0.65;;;0.55;;
40737;SDS011;54759;48.094;-1.628;2022-12-18T19:08:47;0.68;;;0.60;;
40737;SDS011;54759;48.094;-1.628;2022-12-18T19:11:51;0.88;;;0.77;;
40737;SDS011;54759;48.094;-1.628;2022-12-18T19:15:04;0.50;;;0.50;;
40737;SDS011;54759;48.094;-1.628;2022-12-18T19:18:06;0.60;;;0.60;;
40737;SDS011;54759;48.094;-1.628;2022-12-18T19:21:08;1.02;;;0.60;;
40737;SDS011;54759;48.094;-1.628;2022-12-18T19:24:10;0.80;;;0.60;;
40737;SDS011;54759;48.094;-1.628;2022-12-18T19:27:12;0.88;;;0.63;;
40737;SDS011;54759;48.094;-1.628;2022-12-18T19:30:14;0.70;;;0.68;;
40737;SDS011;54759;48.094;-1.628;2022-12-18T19:33:16;0.50;;;0.45;;
40737;SDS011;54759;48.094;-1.628;2022-12-18T19:36:38;0.73;;;0.60;;
40737;SDS011;54759;48.094;-1.628;2022-12-18T19:39:39;1.00;;;0.90;;
40737;SDS011;54759;48.094;-1.628;2022-12-18T19:42:41;1.15;;;0.55;;
40737;SDS011;54759;48.094;-1.628;2022-12-18T19:45:43;1.00;;;0.70;;
40737;SDS011;54759;48.094;-1.628;2022-12-18T19:48:45;0.68;;;0.68;;
40737;SDS011;54759;48.094;-1.628;2022-12-18T19:51:47;0.50;;;0.43;;
40737;SDS011;54759;48.094;-1.628;2022-12-18T19:54:50;0.98;;;0.80;;